sensor_id;sensor_type;location;lat;lon;timestamp;P1;durP1;ratioP1;P2;durP2;ratioP2
4754;SDS011;2391;47.212;7.542;2024-03-08T00:00:51;22.93;;;12.10;;
4754;SDS011;2391;47.212;7.542;2024-03-08T00:03:17;25.03;;;12.50;;
4754;SDS011;2391;47.212;7.542;2024-03-08T00:05:43;23.93;;;12.23;;
4754;SDS011;2391;47.212;7.542;2024-03-08T00:08:08;24.07;;;12.10;;
4754;SDS011;2391;47.212;7.542;2024-03-08T00:10:35;27.47;;;13.40;;
4754;SDS011;2391;47.212;7.542;2024-03-08T00:13:01;23.87;;;11.60;;
4754;SDS011;2391;47.212;7.542;2024-03-08T00:15:28;25.53;;;13.60;;
4754;SDS011;2391;47.212;7.542;2024-03-08T00:17:54;20.20;;;12.00;;
4754;SDS011;2391;47.212;7.542;2024-03-08T00:20:20;25.53;;;13.17;;
4754;SDS011;2391;47.212;7.542;2024-03-08T00:22:46;22.30;;;11.63;;
4754;SDS011;2391;47.212;7.542;2024-03-08T00:25:12;26.93;;;12.40;;
4754;SDS011;2391;47.212;7.542;2024-03-08T00:27:38;24.70;;;13.13;;
4754;SDS011;2391;47.212;7.542;2024-03-08T00:30:04;27.17;;;13.57;;
4754;SDS011;2391;47.212;7.542;2024-03-08T00:32:31;23.63;;;12.00;;
4754;SDS011;2391;47.212;7.542;2024-03-08T00:34:57;26.63;;;13.57;;
4754;SDS011;2391;47.212;7.542;2024-03-08T00:37:23;25.80;;;13.30;;
4754;SDS011;2391;47.212;7.542;2024-03-08T00:39:50;29.80;;;14.10;;
4754;SDS011;2391;47.212;7.542;2024-03-08T00:42:17;28.77;;;13.30;;
4754;SDS011;2391;47.212;7.542;2024-03-08T00:44:44;23.93;;;11.40;;
4754;SDS011;2391;47.212;7.542;2024-03-08T00:47:10;27.20;;;12.27;;
4754;SDS011;2391;47.212;7.542;2024-03-08T00:49:36;23.70;;;12.47;;
4754;SDS011;2391;47.212;7.542;2024-03-08T00:52:03;22.17;;;12.07;;
4754;SDS011;2391;47.212;7.542;2024-03-08T00:54:34;25.10;;;13.17;;
4754;SDS011;2391;47.212;7.542;2024-03-08T00:57:03;23.43;;;11.87;;
4754;SDS011;2391;47.212;7.542;2024-03-08T00:59:30;22.43;;;11.87;;
4754;SDS011;2391;47.212;7.542;2024-03-08T01:02:02;22.43;;;11.37;;
4754;SDS011;2391;47.212;7.542;2024-03-08T01:04:26;24.17;;;12.27;;
4754;SDS011;2391;47.212;7.542;2024-03-08T01:06:54;26.00;;;12.40;;
4754;SDS011;2391;47.212;7.542;2024-03-08T01:09:22;23.40;;;12.70;;
4754;SDS011;2391;47.212;7.542;2024-03-08T01:11:48;20.77;;;11.33;;
4754;SDS011;2391;47.212;7.542;2024-03-08T01:14:15;23.27;;;12.83;;
4754;SDS011;2391;47.212;7.542;2024-03-08T01:16:41;21.97;;;12.03;;
4754;SDS011;2391;47.212;7.542;2024-03-08T01:19:07;28.63;;;11.97;;
4754;SDS011;2391;47.212;7.542;2024-03-08T01:21:34;25.40;;;12.80;;
4754;SDS011;2391;47.212;7.542;2024-03-08T01:24:00;26.50;;;13.33;;
4754;SDS011;2391;47.212;7.542;2024-03-08T01:26:25;31.10;;;16.50;;
4754;SDS011;2391;47.212;7.542;2024-03-08T01:28:51;26.40;;;14.00;;
4754;SDS011;2391;47.212;7.542;2024-03-08T01:31:17;24.87;;;12.70;;
4754;SDS011;2391;47.212;7.542;2024-03-08T01:33:43;23.53;;;12.43;;
4754;SDS011;2391;47.212;7.542;2024-03-08T01:36:08;24.20;;;12.30;;
4754;SDS011;2391;47.212;7.542;2024-03-08T01:38:34;24.57;;;11.87;;
4754;SDS011;2391;47.212;7.542;2024-03-08T01:41:01;23.20;;;11.50;;
4754;SDS011;2391;47.212;7.542;2024-03-08T01:43:28;25.33;;;12.60;;
4754;SDS011;2391;47.212;7.542;2024-03-08T01:45:55;25.77;;;13.33;;
4754;SDS011;2391;47.212;7.542;2024-03-08T01:48:25;20.50;;;11.03;;
4754;SDS011;2391;47.212;7.542;2024-03-08T01:50:51;27.47;;;12.53;;
4754;SDS011;2391;47.212;7.542;2024-03-08T01:53:20;26.73;;;12.80;;
4754;SDS011;2391;47.212;7.542;2024-03-08T01:55:49;28.70;;;13.30;;
4754;SDS011;2391;47.212;7.542;2024-03-08T01:58:17;23.80;;;12.93;;
4754;SDS011;2391;47.212;7.542;2024-03-08T02:00:45;26.87;;;12.90;;
4754;SDS011;2391;47.212;7.542;2024-03-08T02:03:15;25.10;;;12.83;;
4754;SDS011;2391;47.212;7.542;2024-03-08T02:05:41;32.63;;;13.50;;
4754;SDS011;2391;47.212;7.542;2024-03-08T02:08:09;25.50;;;13.33;;
4754;SDS011;2391;47.212;7.542;2024-03-08T02:10:43;23.10;;;12.60;;
4754;SDS011;2391;47.212;7.542;2024-03-08T02:13:10;28.10;;;13.50;;
4754;SDS011;2391;47.212;7.542;2024-03-08T02:15:52;30.83;;;15.37;;
4754;SDS011;2391;47.212;7.542;2024-03-08T02:18:19;26.63;;;13.00;;
4754;SDS011;2391;47.212;7.542;2024-03-08T02:20:46;25.30;;;13.87;;
4754;SDS011;2391;47.212;7.542;2024-03-08T02:23:14;26.87;;;13.53;;
4754;SDS011;2391;47.212;7.542;2024-03-08T02:25:40;24.57;;;12.37;;
4754;SDS011;2391;47.212;7.542;2024-03-08T02:28:10;34.37;;;14.40;;
4754;SDS011;2391;47.212;7.542;2024-03-08T02:30:37;23.77;;;12.20;;
4754;SDS011;2391;47.212;7.542;2024-03-08T02:33:07;29.60;;;15.00;;
4754;SDS011;2391;47.212;7.542;2024-03-08T02:35:34;32.03;;;14.37;;
4754;SDS011;2391;47.212;7.542;2024-03-08T02:38:01;24.47;;;13.33;;
4754;SDS011;2391;47.212;7.542;2024-03-08T02:40:29;31.07;;;15.03;;
4754;SDS011;2391;47.212;7.542;2024-03-08T02:42:55;26.77;;;14.10;;
4754;SDS011;2391;47.212;7.542;2024-03-08T02:45:20;27.20;;;14.00;;
4754;SDS011;2391;47.212;7.542;2024-03-08T02:47:46;28.33;;;13.97;;
4754;SDS011;2391;47.212;7.542;2024-03-08T02:50:14;24.57;;;12.07;;
4754;SDS011;2391;47.212;7.542;2024-03-08T02:52:42;32.75;;;18.75;;
4754;SDS011;2391;47.212;7.542;2024-03-08T02:55:08;25.47;;;14.80;;
4754;SDS011;2391;47.212;7.542;2024-03-08T02:57:36;23.87;;;13.47;;
4754;SDS011;2391;47.212;7.542;2024-03-08T03:00:02;27.40;;;14.10;;
4754;SDS011;2391;47.212;7.542;2024-03-08T03:02:33;23.83;;;12.20;;
4754;SDS011;2391;47.212;7.542;2024-03-08T03:04:59;30.53;;;14.00;;
4754;SDS011;2391;47.212;7.542;2024-03-08T03:07:27;30.50;;;12.97;;
4754;SDS011;2391;47.212;7.542;2024-03-08T03:09:53;29.80;;;14.23;;
4754;SDS011;2391;47.212;7.542;2024-03-08T03:12:18;24.33;;;13.00;;
4754;SDS011;2391;47.212;7.542;2024-03-08T03:14:44;29.40;;;12.73;;
4754;SDS011;2391;47.212;7.542;2024-03-08T03:17:10;29.20;;;14.50;;
4754;SDS011;2391;47.212;7.542;2024-03-08T03:19:36;27.47;;;12.93;;
4754;SDS011;2391;47.212;7.542;2024-03-08T03:22:02;28.33;;;13.70;;
4754;SDS011;2391;47.212;7.542;2024-03-08T03:24:28;30.27;;;13.93;;
4754;SDS011;2391;47.212;7.542;2024-03-08T03:26:55;26.13;;;13.73;;
4754;SDS011;2391;47.212;7.542;2024-03-08T03:29:20;26.23;;;13.77;;
4754;SDS011;2391;47.212;7.542;2024-03-08T03:31:46;27.27;;;12.50;;
4754;SDS011;2391;47.212;7.542;2024-03-08T03:34:12;31.10;;;14.00;;
4754;SDS011;2391;47.212;7.542;2024-03-08T03:36:38;29.77;;;14.13;;
4754;SDS011;2391;47.212;7.542;2024-03-08T03:39:06;26.27;;;13.13;;
4754;SDS011;2391;47.212;7.542;2024-03-08T03:41:33;28.37;;;14.27;;
4754;SDS011;2391;47.212;7.542;2024-03-08T03:43:59;23.73;;;12.37;;
4754;SDS011;2391;47.212;7.542;2024-03-08T03:46:25;26.83;;;13.13;;
4754;SDS011;2391;47.212;7.542;2024-03-08T03:48:53;23.67;;;12.03;;
4754;SDS011;2391;47.212;7.542;2024-03-08T03:51:21;26.90;;;13.97;;
4754;SDS011;2391;47.212;7.542;2024-03-08T03:53:47;25.27;;;12.80;;
4754;SDS011;2391;47.212;7.542;2024-03-08T03:56:12;23.90;;;12.27;;
4754;SDS011;2391;47.212;7.542;2024-03-08T03:58:38;27.50;;;11.87;;
4754;SDS011;2391;47.212;7.542;2024-03-08T04:01:05;38.87;;;12.57;;
4754;SDS011;2391;47.212;7.542;2024-03-08T04:03:31;26.73;;;12.47;;
4754;SDS011;2391;47.212;7.542;2024-03-08T04:05:56;23.17;;;12.30;;
4754;SDS011;2391;47.212;7.542;2024-03-08T04:08:22;35.63;;;14.07;;
4754;SDS011;2391;47.212;7.542;2024-03-08T04:10:51;26.47;;;12.47;;
4754;SDS011;2391;47.212;7.542;2024-03-08T04:13:17;28.80;;;12.57;;
4754;SDS011;2391;47.212;7.542;2024-03-08T04:15:43;28.60;;;13.00;;
4754;SDS011;2391;47.212;7.542;2024-03-08T04:18:09;26.00;;;12.77;;
4754;SDS011;2391;47.212;7.542;2024-03-08T04:20:35;29.63;;;13.30;;
4754;SDS011;2391;47.212;7.542;2024-03-08T04:23:02;26.13;;;13.23;;
4754;SDS011;2391;47.212;7.542;2024-03-08T04:25:28;28.60;;;12.60;;
4754;SDS011;2391;47.212;7.542;2024-03-08T04:27:53;24.70;;;12.60;;
4754;SDS011;2391;47.212;7.542;2024-03-08T04:30:19;33.00;;;13.73;;
4754;SDS011;2391;47.212;7.542;2024-03-08T04:32:46;23.30;;;12.40;;
4754;SDS011;2391;47.212;7.542;2024-03-08T04:35:12;21.77;;;11.80;;
4754;SDS011;2391;47.212;7.542;2024-03-08T04:37:40;25.50;;;12.00;;
4754;SDS011;2391;47.212;7.542;2024-03-08T04:40:06;27.10;;;12.63;;
4754;SDS011;2391;47.212;7.542;2024-03-08T04:42:32;23.47;;;12.90;;
4754;SDS011;2391;47.212;7.542;2024-03-08T04:44:59;19.80;;;11.50;;
4754;SDS011;2391;47.212;7.542;2024-03-08T04:47:25;22.90;;;10.70;;
4754;SDS011;2391;47.212;7.542;2024-03-08T04:49:51;24.00;;;12.70;;
4754;SDS011;2391;47.212;7.542;2024-03-08T04:52:17;21.67;;;11.23;;
4754;SDS011;2391;47.212;7.542;2024-03-08T04:54:43;22.00;;;11.47;;
4754;SDS011;2391;47.212;7.542;2024-03-08T04:57:10;23.30;;;12.97;;
4754;SDS011;2391;47.212;7.542;2024-03-08T04:59:36;27.17;;;11.50;;
4754;SDS011;2391;47.212;7.542;2024-03-08T05:02:02;20.60;;;10.60;;
4754;SDS011;2391;47.212;7.542;2024-03-08T05:04:28;22.73;;;11.13;;
4754;SDS011;2391;47.212;7.542;2024-03-08T05:06:54;24.70;;;11.87;;
4754;SDS011;2391;47.212;7.542;2024-03-08T05:09:21;24.83;;;11.10;;
4754;SDS011;2391;47.212;7.542;2024-03-08T05:11:46;23.70;;;12.00;;
4754;SDS011;2391;47.212;7.542;2024-03-08T05:14:13;20.13;;;12.03;;
4754;SDS011;2391;47.212;7.542;2024-03-08T05:16:42;20.20;;;10.97;;
4754;SDS011;2391;47.212;7.542;2024-03-08T05:19:08;19.90;;;11.07;;
4754;SDS011;2391;47.212;7.542;2024-03-08T05:21:34;23.03;;;11.77;;
4754;SDS011;2391;47.212;7.542;2024-03-08T05:24:00;20.00;;;11.27;;
4754;SDS011;2391;47.212;7.542;2024-03-08T05:26:26;19.70;;;10.20;;
4754;SDS011;2391;47.212;7.542;2024-03-08T05:28:52;21.33;;;10.60;;
4754;SDS011;2391;47.212;7.542;2024-03-08T05:31:19;21.07;;;11.67;;
4754;SDS011;2391;47.212;7.542;2024-03-08T05:33:47;17.30;;;10.77;;
4754;SDS011;2391;47.212;7.542;2024-03-08T05:36:13;18.03;;;10.40;;
4754;SDS011;2391;47.212;7.542;2024-03-08T05:38:40;19.17;;;11.10;;
4754;SDS011;2391;47.212;7.542;2024-03-08T05:41:07;19.07;;;10.87;;
4754;SDS011;2391;47.212;7.542;2024-03-08T05:43:33;16.13;;;10.37;;
4754;SDS011;2391;47.212;7.542;2024-03-08T05:45:59;19.33;;;10.40;;
4754;SDS011;2391;47.212;7.542;2024-03-08T05:48:25;15.90;;;9.57;;
4754;SDS011;2391;47.212;7.542;2024-03-08T05:50:51;18.40;;;10.37;;
4754;SDS011;2391;47.212;7.542;2024-03-08T05:53:17;18.00;;;10.43;;
4754;SDS011;2391;47.212;7.542;2024-03-08T05:55:42;18.47;;;10.43;;
4754;SDS011;2391;47.212;7.542;2024-03-08T05:58:09;16.40;;;10.13;;
4754;SDS011;2391;47.212;7.542;2024-03-08T06:00:36;19.43;;;10.33;;
4754;SDS011;2391;47.212;7.542;2024-03-08T06:03:02;21.40;;;12.27;;
4754;SDS011;2391;47.212;7.542;2024-03-08T06:05:28;18.97;;;11.33;;
4754;SDS011;2391;47.212;7.542;2024-03-08T06:07:54;19.67;;;10.90;;
4754;SDS011;2391;47.212;7.542;2024-03-08T06:10:21;17.80;;;10.60;;
4754;SDS011;2391;47.212;7.542;2024-03-08T06:12:47;18.30;;;10.30;;
4754;SDS011;2391;47.212;7.542;2024-03-08T06:15:17;17.27;;;10.20;;
4754;SDS011;2391;47.212;7.542;2024-03-08T06:17:41;16.37;;;9.80;;
4754;SDS011;2391;47.212;7.542;2024-03-08T06:20:07;18.60;;;10.53;;
4754;SDS011;2391;47.212;7.542;2024-03-08T06:22:38;19.93;;;10.43;;
4754;SDS011;2391;47.212;7.542;2024-03-08T06:25:06;16.60;;;9.70;;
4754;SDS011;2391;47.212;7.542;2024-03-08T06:27:33;21.10;;;11.30;;
4754;SDS011;2391;47.212;7.542;2024-03-08T06:29:59;21.10;;;11.00;;
4754;SDS011;2391;47.212;7.542;2024-03-08T06:32:25;21.80;;;11.03;;
4754;SDS011;2391;47.212;7.542;2024-03-08T06:34:51;25.50;;;14.03;;
4754;SDS011;2391;47.212;7.542;2024-03-08T06:37:17;21.70;;;12.80;;
4754;SDS011;2391;47.212;7.542;2024-03-08T06:39:47;21.27;;;12.10;;
4754;SDS011;2391;47.212;7.542;2024-03-08T06:42:13;21.43;;;11.70;;
4754;SDS011;2391;47.212;7.542;2024-03-08T06:44:39;23.43;;;11.17;;
4754;SDS011;2391;47.212;7.542;2024-03-08T06:47:07;24.07;;;12.03;;
4754;SDS011;2391;47.212;7.542;2024-03-08T06:49:33;22.53;;;11.90;;
4754;SDS011;2391;47.212;7.542;2024-03-08T06:51:59;20.40;;;10.73;;
4754;SDS011;2391;47.212;7.542;2024-03-08T06:54:29;22.63;;;10.43;;
4754;SDS011;2391;47.212;7.542;2024-03-08T06:56:55;19.37;;;11.03;;
4754;SDS011;2391;47.212;7.542;2024-03-08T06:59:21;20.30;;;10.77;;
4754;SDS011;2391;47.212;7.542;2024-03-08T07:01:47;19.57;;;11.50;;
4754;SDS011;2391;47.212;7.542;2024-03-08T07:04:13;25.03;;;12.13;;
4754;SDS011;2391;47.212;7.542;2024-03-08T07:06:39;20.97;;;11.47;;
4754;SDS011;2391;47.212;7.542;2024-03-08T07:09:06;22.03;;;12.07;;
4754;SDS011;2391;47.212;7.542;2024-03-08T07:11:32;19.97;;;11.07;;
4754;SDS011;2391;47.212;7.542;2024-03-08T07:13:57;18.10;;;11.20;;
4754;SDS011;2391;47.212;7.542;2024-03-08T07:16:24;18.70;;;11.33;;
4754;SDS011;2391;47.212;7.542;2024-03-08T07:18:51;23.20;;;11.67;;
4754;SDS011;2391;47.212;7.542;2024-03-08T07:21:18;23.17;;;11.40;;
4754;SDS011;2391;47.212;7.542;2024-03-08T07:23:45;25.23;;;12.20;;
4754;SDS011;2391;47.212;7.542;2024-03-08T07:26:22;22.20;;;11.57;;
4754;SDS011;2391;47.212;7.542;2024-03-08T07:28:48;21.60;;;10.83;;
4754;SDS011;2391;47.212;7.542;2024-03-08T07:31:14;22.10;;;11.50;;
4754;SDS011;2391;47.212;7.542;2024-03-08T07:33:42;22.77;;;11.87;;
4754;SDS011;2391;47.212;7.542;2024-03-08T07:36:08;23.50;;;12.27;;
4754;SDS011;2391;47.212;7.542;2024-03-08T07:38:34;20.60;;;11.57;;
4754;SDS011;2391;47.212;7.542;2024-03-08T07:41:00;27.23;;;12.77;;
4754;SDS011;2391;47.212;7.542;2024-03-08T07:43:26;23.33;;;13.00;;
4754;SDS011;2391;47.212;7.542;2024-03-08T07:45:52;24.67;;;13.07;;
4754;SDS011;2391;47.212;7.542;2024-03-08T07:48:20;21.83;;;11.57;;
4754;SDS011;2391;47.212;7.542;2024-03-08T07:50:46;27.47;;;12.87;;
4754;SDS011;2391;47.212;7.542;2024-03-08T07:53:12;25.20;;;11.50;;
4754;SDS011;2391;47.212;7.542;2024-03-08T07:55:38;26.40;;;11.37;;
4754;SDS011;2391;47.212;7.542;2024-03-08T07:58:06;24.33;;;12.77;;
4754;SDS011;2391;47.212;7.542;2024-03-08T08:00:32;26.37;;;11.80;;
4754;SDS011;2391;47.212;7.542;2024-03-08T08:02:58;23.93;;;12.50;;
4754;SDS011;2391;47.212;7.542;2024-03-08T08:05:24;28.07;;;12.40;;
4754;SDS011;2391;47.212;7.542;2024-03-08T08:07:50;22.83;;;12.27;;
4754;SDS011;2391;47.212;7.542;2024-03-08T08:10:17;23.70;;;12.10;;
4754;SDS011;2391;47.212;7.542;2024-03-08T08:12:45;21.73;;;12.20;;
4754;SDS011;2391;47.212;7.542;2024-03-08T08:15:11;26.07;;;11.80;;
4754;SDS011;2391;47.212;7.542;2024-03-08T08:17:38;25.60;;;12.40;;
4754;SDS011;2391;47.212;7.542;2024-03-08T08:20:04;26.30;;;13.23;;
4754;SDS011;2391;47.212;7.542;2024-03-08T08:22:31;26.63;;;13.40;;
4754;SDS011;2391;47.212;7.542;2024-03-08T08:24:57;25.50;;;12.80;;
4754;SDS011;2391;47.212;7.542;2024-03-08T08:27:22;21.97;;;12.50;;
4754;SDS011;2391;47.212;7.542;2024-03-08T08:29:48;23.33;;;11.70;;
4754;SDS011;2391;47.212;7.542;2024-03-08T08:32:15;23.97;;;11.87;;
4754;SDS011;2391;47.212;7.542;2024-03-08T08:34:41;22.47;;;11.20;;
4754;SDS011;2391;47.212;7.542;2024-03-08T08:37:09;22.93;;;11.80;;
4754;SDS011;2391;47.212;7.542;2024-03-08T08:39:35;26.23;;;12.70;;
4754;SDS011;2391;47.212;7.542;2024-03-08T08:42:01;19.10;;;10.60;;
4754;SDS011;2391;47.212;7.542;2024-03-08T08:44:28;24.27;;;12.33;;
4754;SDS011;2391;47.212;7.542;2024-03-08T08:46:53;27.33;;;12.57;;
4754;SDS011;2391;47.212;7.542;2024-03-08T08:49:19;23.10;;;12.40;;
4754;SDS011;2391;47.212;7.542;2024-03-08T08:51:49;26.57;;;12.90;;
4754;SDS011;2391;47.212;7.542;2024-03-08T08:54:16;24.10;;;11.77;;
4754;SDS011;2391;47.212;7.542;2024-03-08T08:56:42;21.57;;;12.00;;
4754;SDS011;2391;47.212;7.542;2024-03-08T08:59:14;24.17;;;11.73;;
4754;SDS011;2391;47.212;7.542;2024-03-08T09:01:40;23.53;;;11.23;;
4754;SDS011;2391;47.212;7.542;2024-03-08T09:04:06;21.40;;;10.97;;
4754;SDS011;2391;47.212;7.542;2024-03-08T09:06:33;30.87;;;11.00;;
4754;SDS011;2391;47.212;7.542;2024-03-08T09:08:59;20.27;;;11.23;;
4754;SDS011;2391;47.212;7.542;2024-03-08T09:11:24;21.87;;;11.47;;
4754;SDS011;2391;47.212;7.542;2024-03-08T09:13:51;23.37;;;11.00;;
4754;SDS011;2391;47.212;7.542;2024-03-08T09:16:17;20.40;;;11.20;;
4754;SDS011;2391;47.212;7.542;2024-03-08T09:18:43;22.60;;;11.47;;
4754;SDS011;2391;47.212;7.542;2024-03-08T09:21:09;22.40;;;12.37;;
4754;SDS011;2391;47.212;7.542;2024-03-08T09:23:36;19.30;;;10.90;;
4754;SDS011;2391;47.212;7.542;2024-03-08T09:26:02;26.13;;;11.70;;
4754;SDS011;2391;47.212;7.542;2024-03-08T09:28:29;18.53;;;11.20;;
4754;SDS011;2391;47.212;7.542;2024-03-08T09:30:55;17.47;;;10.53;;
4754;SDS011;2391;47.212;7.542;2024-03-08T09:33:21;19.47;;;10.73;;
4754;SDS011;2391;47.212;7.542;2024-03-08T09:35:47;20.67;;;11.20;;
4754;SDS011;2391;47.212;7.542;2024-03-08T09:38:14;21.23;;;11.13;;
4754;SDS011;2391;47.212;7.542;2024-03-08T09:40:44;22.80;;;11.10;;
4754;SDS011;2391;47.212;7.542;2024-03-08T09:43:08;20.40;;;11.33;;
4754;SDS011;2391;47.212;7.542;2024-03-08T09:45:37;22.10;;;11.00;;
4754;SDS011;2391;47.212;7.542;2024-03-08T09:48:05;22.53;;;11.90;;
4754;SDS011;2391;47.212;7.542;2024-03-08T09:50:34;20.53;;;11.33;;
4754;SDS011;2391;47.212;7.542;2024-03-08T09:53:00;19.83;;;11.00;;
4754;SDS011;2391;47.212;7.542;2024-03-08T09:55:28;22.67;;;10.93;;
4754;SDS011;2391;47.212;7.542;2024-03-08T09:57:56;20.27;;;10.50;;
4754;SDS011;2391;47.212;7.542;2024-03-08T10:00:38;18.67;;;9.70;;
4754;SDS011;2391;47.212;7.542;2024-03-08T10:03:04;16.97;;;9.50;;
4754;SDS011;2391;47.212;7.542;2024-03-08T10:05:31;26.27;;;12.20;;
4754;SDS011;2391;47.212;7.542;2024-03-08T10:08:02;18.43;;;10.43;;
4754;SDS011;2391;47.212;7.542;2024-03-08T10:10:30;21.17;;;10.63;;
4754;SDS011;2391;47.212;7.542;2024-03-08T10:12:56;21.00;;;10.43;;
4754;SDS011;2391;47.212;7.542;2024-03-08T10:15:22;20.20;;;11.03;;
4754;SDS011;2391;47.212;7.542;2024-03-08T10:17:49;16.67;;;9.17;;
4754;SDS011;2391;47.212;7.542;2024-03-08T10:20:16;20.80;;;11.80;;
4754;SDS011;2391;47.212;7.542;2024-03-08T10:22:43;21.43;;;11.00;;
4754;SDS011;2391;47.212;7.542;2024-03-08T10:25:10;18.70;;;10.23;;
4754;SDS011;2391;47.212;7.542;2024-03-08T10:27:40;20.30;;;10.73;;
4754;SDS011;2391;47.212;7.542;2024-03-08T10:30:18;19.80;;;10.33;;
4754;SDS011;2391;47.212;7.542;2024-03-08T10:32:41;18.60;;;10.20;;
4754;SDS011;2391;47.212;7.542;2024-03-08T10:35:07;16.30;;;10.07;;
4754;SDS011;2391;47.212;7.542;2024-03-08T10:37:36;17.53;;;9.00;;
4754;SDS011;2391;47.212;7.542;2024-03-08T10:40:03;19.17;;;10.57;;
4754;SDS011;2391;47.212;7.542;2024-03-08T10:42:32;19.67;;;11.20;;
4754;SDS011;2391;47.212;7.542;2024-03-08T10:45:13;20.67;;;10.97;;
4754;SDS011;2391;47.212;7.542;2024-03-08T10:47:40;21.40;;;11.10;;
4754;SDS011;2391;47.212;7.542;2024-03-08T10:52:43;18.90;;;10.60;;
4754;SDS011;2391;47.212;7.542;2024-03-08T10:55:09;17.87;;;10.27;;
4754;SDS011;2391;47.212;7.542;2024-03-08T10:57:40;16.87;;;10.30;;
4754;SDS011;2391;47.212;7.542;2024-03-08T11:00:07;19.73;;;11.03;;
4754;SDS011;2391;47.212;7.542;2024-03-08T11:02:35;19.37;;;10.30;;
4754;SDS011;2391;47.212;7.542;2024-03-08T11:05:03;17.17;;;9.83;;
4754;SDS011;2391;47.212;7.542;2024-03-08T11:07:40;17.07;;;9.93;;
4754;SDS011;2391;47.212;7.542;2024-03-08T11:10:18;17.83;;;10.50;;
4754;SDS011;2391;47.212;7.542;2024-03-08T11:12:45;17.47;;;9.50;;
4754;SDS011;2391;47.212;7.542;2024-03-08T11:15:13;18.63;;;10.23;;
4754;SDS011;2391;47.212;7.542;2024-03-08T11:20:12;19.00;;;10.93;;
4754;SDS011;2391;47.212;7.542;2024-03-08T11:22:59;17.10;;;9.63;;
4754;SDS011;2391;47.212;7.542;2024-03-08T11:28:12;20.83;;;10.63;;
4754;SDS011;2391;47.212;7.542;2024-03-08T11:30:46;19.80;;;9.47;;
4754;SDS011;2391;47.212;7.542;2024-03-08T11:33:14;17.30;;;9.93;;
4754;SDS011;2391;47.212;7.542;2024-03-08T11:35:41;19.57;;;10.40;;
4754;SDS011;2391;47.212;7.542;2024-03-08T11:38:12;13.87;;;9.43;;
4754;SDS011;2391;47.212;7.542;2024-03-08T11:40:39;17.07;;;10.47;;
4754;SDS011;2391;47.212;7.542;2024-03-08T11:43:05;16.30;;;9.40;;
4754;SDS011;2391;47.212;7.542;2024-03-08T11:45:35;21.27;;;10.90;;
4754;SDS011;2391;47.212;7.542;2024-03-08T11:48:18;18.67;;;10.50;;
4754;SDS011;2391;47.212;7.542;2024-03-08T11:50:44;18.53;;;9.80;;
4754;SDS011;2391;47.212;7.542;2024-03-08T11:53:09;18.73;;;10.60;;
4754;SDS011;2391;47.212;7.542;2024-03-08T11:55:35;20.47;;;10.57;;
4754;SDS011;2391;47.212;7.542;2024-03-08T11:58:02;17.83;;;10.10;;
4754;SDS011;2391;47.212;7.542;2024-03-08T12:00:29;19.80;;;9.83;;
4754;SDS011;2391;47.212;7.542;2024-03-08T12:05:35;16.60;;;9.87;;
4754;SDS011;2391;47.212;7.542;2024-03-08T12:08:02;18.00;;;9.73;;
4754;SDS011;2391;47.212;7.542;2024-03-08T12:10:30;15.57;;;8.87;;
4754;SDS011;2391;47.212;7.542;2024-03-08T12:12:58;17.63;;;9.87;;
4754;SDS011;2391;47.212;7.542;2024-03-08T12:15:28;23.13;;;10.73;;
4754;SDS011;2391;47.212;7.542;2024-03-08T12:17:55;15.47;;;9.13;;
4754;SDS011;2391;47.212;7.542;2024-03-08T12:20:22;19.90;;;10.20;;
4754;SDS011;2391;47.212;7.542;2024-03-08T12:22:54;15.17;;;9.77;;
4754;SDS011;2391;47.212;7.542;2024-03-08T12:25:30;18.50;;;10.07;;
4754;SDS011;2391;47.212;7.542;2024-03-08T12:28:06;20.70;;;9.20;;
4754;SDS011;2391;47.212;7.542;2024-03-08T12:30:48;17.27;;;11.23;;
4754;SDS011;2391;47.212;7.542;2024-03-08T12:33:17;17.43;;;9.63;;
4754;SDS011;2391;47.212;7.542;2024-03-08T12:35:50;15.47;;;8.83;;
4754;SDS011;2391;47.212;7.542;2024-03-08T12:38:23;14.80;;;9.20;;
4754;SDS011;2391;47.212;7.542;2024-03-08T12:40:54;18.60;;;10.03;;
4754;SDS011;2391;47.212;7.542;2024-03-08T12:43:22;18.20;;;9.97;;
4754;SDS011;2391;47.212;7.542;2024-03-08T12:45:48;16.00;;;8.60;;
4754;SDS011;2391;47.212;7.542;2024-03-08T12:48:14;15.30;;;9.83;;
4754;SDS011;2391;47.212;7.542;2024-03-08T12:50:41;15.37;;;9.33;;
4754;SDS011;2391;47.212;7.542;2024-03-08T12:53:10;16.87;;;10.30;;
4754;SDS011;2391;47.212;7.542;2024-03-08T12:55:36;16.10;;;9.13;;
4754;SDS011;2391;47.212;7.542;2024-03-08T12:58:02;17.20;;;9.33;;
4754;SDS011;2391;47.212;7.542;2024-03-08T13:00:28;18.07;;;9.17;;
4754;SDS011;2391;47.212;7.542;2024-03-08T13:02:54;16.37;;;9.50;;
4754;SDS011;2391;47.212;7.542;2024-03-08T13:05:20;15.50;;;9.10;;
4754;SDS011;2391;47.212;7.542;2024-03-08T13:07:46;17.30;;;9.80;;
4754;SDS011;2391;47.212;7.542;2024-03-08T13:10:13;14.13;;;9.17;;
4754;SDS011;2391;47.212;7.542;2024-03-08T13:12:43;17.30;;;9.93;;
4754;SDS011;2391;47.212;7.542;2024-03-08T13:15:09;15.73;;;9.27;;
4754;SDS011;2391;47.212;7.542;2024-03-08T13:17:44;19.27;;;9.57;;
4754;SDS011;2391;47.212;7.542;2024-03-08T13:20:11;12.40;;;8.73;;
4754;SDS011;2391;47.212;7.542;2024-03-08T13:22:39;18.83;;;9.60;;
4754;SDS011;2391;47.212;7.542;2024-03-08T13:25:05;16.53;;;9.80;;
4754;SDS011;2391;47.212;7.542;2024-03-08T13:27:31;16.50;;;8.70;;
4754;SDS011;2391;47.212;7.542;2024-03-08T13:29:57;17.00;;;8.87;;
4754;SDS011;2391;47.212;7.542;2024-03-08T13:32:23;19.00;;;9.33;;
4754;SDS011;2391;47.212;7.542;2024-03-08T13:34:50;16.73;;;9.50;;
4754;SDS011;2391;47.212;7.542;2024-03-08T13:37:16;16.07;;;9.90;;
4754;SDS011;2391;47.212;7.542;2024-03-08T13:39:43;16.47;;;9.50;;
4754;SDS011;2391;47.212;7.542;2024-03-08T13:42:13;16.80;;;9.13;;
4754;SDS011;2391;47.212;7.542;2024-03-08T13:44:48;18.07;;;9.67;;
4754;SDS011;2391;47.212;7.542;2024-03-08T13:47:18;22.80;;;9.50;;
4754;SDS011;2391;47.212;7.542;2024-03-08T13:49:44;15.30;;;8.93;;
4754;SDS011;2391;47.212;7.542;2024-03-08T13:52:11;18.43;;;9.67;;
4754;SDS011;2391;47.212;7.542;2024-03-08T13:54:39;16.97;;;9.43;;
4754;SDS011;2391;47.212;7.542;2024-03-08T13:57:06;13.07;;;8.87;;
4754;SDS011;2391;47.212;7.542;2024-03-08T13:59:35;18.47;;;10.03;;
4754;SDS011;2391;47.212;7.542;2024-03-08T14:02:01;16.10;;;10.10;;
4754;SDS011;2391;47.212;7.542;2024-03-08T14:04:28;16.30;;;10.07;;
4754;SDS011;2391;47.212;7.542;2024-03-08T14:06:54;18.80;;;9.90;;
4754;SDS011;2391;47.212;7.542;2024-03-08T14:09:23;18.40;;;9.63;;
4754;SDS011;2391;47.212;7.542;2024-03-08T14:11:50;16.77;;;8.83;;
4754;SDS011;2391;47.212;7.542;2024-03-08T14:14:19;15.67;;;9.70;;
4754;SDS011;2391;47.212;7.542;2024-03-08T14:16:50;12.80;;;8.33;;
4754;SDS011;2391;47.212;7.542;2024-03-08T14:19:20;16.23;;;10.10;;
4754;SDS011;2391;47.212;7.542;2024-03-08T14:21:47;17.67;;;10.00;;
4754;SDS011;2391;47.212;7.542;2024-03-08T14:24:17;17.87;;;9.70;;
4754;SDS011;2391;47.212;7.542;2024-03-08T14:26:44;12.70;;;8.20;;
4754;SDS011;2391;47.212;7.542;2024-03-08T14:29:09;13.70;;;8.80;;
4754;SDS011;2391;47.212;7.542;2024-03-08T14:31:36;17.60;;;9.30;;
4754;SDS011;2391;47.212;7.542;2024-03-08T14:34:03;15.20;;;9.50;;
4754;SDS011;2391;47.212;7.542;2024-03-08T14:36:29;17.07;;;9.90;;
4754;SDS011;2391;47.212;7.542;2024-03-08T14:38:56;15.97;;;9.77;;
4754;SDS011;2391;47.212;7.542;2024-03-08T14:41:22;16.30;;;9.63;;
4754;SDS011;2391;47.212;7.542;2024-03-08T14:43:48;17.10;;;10.07;;
4754;SDS011;2391;47.212;7.542;2024-03-08T14:46:14;17.07;;;8.87;;
4754;SDS011;2391;47.212;7.542;2024-03-08T14:48:50;21.77;;;10.73;;
4754;SDS011;2391;47.212;7.542;2024-03-08T14:51:13;15.27;;;10.07;;
4754;SDS011;2391;47.212;7.542;2024-03-08T14:53:43;15.10;;;9.13;;
4754;SDS011;2391;47.212;7.542;2024-03-08T14:56:11;15.47;;;10.07;;
4754;SDS011;2391;47.212;7.542;2024-03-08T14:58:42;18.00;;;9.57;;
4754;SDS011;2391;47.212;7.542;2024-03-08T15:01:12;17.47;;;9.57;;